Time;durP1;ratioP1;P1;durP2;ratioP2;P2;SDS_P1;SDS_P2;PMS_P1;PMS_P2;Temp;Humidity;BMP_temperature;BMP_pressure;BME280_temperature;BME280_humidity;BME280_pressure;Samples;Min_cycle;Max_cycle;Signal;HPM_P1;HPM_P2
2023/08/27 02:43:55;;;;;;;6.40;4.40;;;;;;;21.01;92.66;98597.73;105795;1313;560726;-38
2023/08/27 02:46:20;;;;;;;6.80;4.30;;;;;;;21.00;93.63;98593.94;107209;1314;22846;-42
2023/08/27 02:48:46;;;;;;;7.40;4.10;;;;;;;20.98;92.84;98591.81;107240;1314;22267;-43
2023/08/27 02:51:11;;;;;;;7.60;3.80;;;;;;;20.97;93.19;98591.20;107241;1314;23016;-37
2023/08/27 02:53:36;;;;;;;10.50;4.20;;;;;;;20.95;92.72;98587.23;107249;1314;22297;-40
2023/08/27 02:56:02;;;;;;;7.20;4.00;;;;;;;20.93;92.70;98581.96;107297;1296;22506;-40
2023/08/27 02:58:28;;;;;;;8.50;3.90;;;;;;;20.91;92.82;98576.38;107478;1310;22979;-40
2023/08/27 03:00:53;;;;;;;5.60;4.00;;;;;;;20.90;92.56;98573.27;107583;1310;22503;-41
2023/08/27 03:03:19;;;;;;;7.00;4.30;;;;;;;20.89;92.69;98565.79;107562;1310;22505;-39
2023/08/27 03:05:44;;;;;;;6.80;4.40;;;;;;;20.88;92.15;98564.22;107549;1310;22370;-41
2023/08/27 03:08:09;;;;;;;9.90;3.90;;;;;;;20.87;92.46;98559.39;107560;1310;22247;-39
2023/08/27 03:10:35;;;;;;;6.40;3.80;;;;;;;20.87;92.13;98551.57;107571;1310;22235;-38
2023/08/27 03:13:00;;;;;;;7.80;4.30;;;;;;;20.88;92.31;98547.52;107571;1287;22330;-40
2023/08/27 03:15:25;;;;;;;6.30;3.90;;;;;;;20.88;92.87;98545.38;107574;1310;23077;-39
2023/08/27 03:17:51;;;;;;;8.40;3.70;;;;;;;20.87;92.49;98542.60;107586;1310;22251;-40
2023/08/27 03:20:16;;;;;;;6.00;4.10;;;;;;;20.87;92.57;98540.31;107579;1310;22413;-41
2023/08/27 03:22:41;;;;;;;8.30;4.20;;;;;;;20.88;92.89;98550.73;107539;1310;22242;-40
2023/08/27 03:25:07;;;;;;;6.40;3.90;;;;;;;20.89;92.13;98557.38;107539;1310;25060;-40
2023/08/27 03:27:34;;;;;;;6.00;4.30;;;;;;;20.88;91.89;98565.09;107540;1310;22510;-41
2023/08/27 03:29:59;;;;;;;4.80;4.20;;;;;;;20.86;92.11;98573.34;107556;1310;22347;-38
2023/08/27 03:32:24;;;;;;;4.20;3.80;;;;;;;20.86;91.34;98582.88;107575;1310;22507;-40
2023/08/27 03:34:50;;;;;;;5.80;3.70;;;;;;;20.86;91.06;98583.52;107543;1310;22349;-39
2023/08/27 03:37:15;;;;;;;6.20;4.00;;;;;;;20.86;90.95;98578.71;107563;1310;22488;-41
2023/08/27 03:39:40;;;;;;;9.10;4.40;;;;;;;20.85;90.81;98582.53;107591;1287;22430;-41
2023/08/27 03:42:05;;;;;;;7.50;3.70;;;;;;;20.85;91.54;98589.39;107551;1291;22921;-38
2023/08/27 03:44:31;;;;;;;7.60;4.00;;;;;;;20.82;91.86;98590.77;107573;1310;22340;-39
2023/08/27 03:46:56;;;;;;;5.80;3.80;;;;;;;20.76;92.00;98600.67;107556;1310;22466;-41
2023/08/27 03:49:22;;;;;;;7.30;4.00;;;;;;;20.72;92.59;98611.05;107554;1307;22246;-38
2023/08/27 03:51:47;;;;;;;5.00;4.00;;;;;;;20.68;93.56;98611.89;107566;1310;23235;-41
2023/08/27 03:54:12;;;;;;;5.80;4.20;;;;;;;20.61;94.31;98620.05;107551;1310;22271;-41
2023/08/27 03:56:37;;;;;;;6.50;4.30;;;;;;;20.55;93.82;98631.02;107557;1310;22443;-40
2023/08/27 03:59:03;;;;;;;7.30;4.30;;;;;;;20.52;95.11;98640.45;107558;1310;22248;-39
2023/08/27 04:01:29;;;;;;;7.40;4.60;;;;;;;20.47;95.18;98642.25;107545;1310;22467;-38
2023/08/27 04:03:55;;;;;;;7.60;4.30;;;;;;;20.43;94.64;98646.41;107516;1310;22253;-38
2023/08/27 04:06:21;;;;;;;9.60;4.70;;;;;;;20.40;95.62;98645.84;106723;1310;22607;-40
2023/08/27 04:08:47;;;;;;;6.00;4.40;;;;;;;20.38;96.39;98639.40;106428;1310;22565;-38
2023/08/27 04:11:12;;;;;;;12.00;5.30;;;;;;;20.38;95.85;98628.64;107247;1310;22325;-38
2023/08/27 04:13:37;;;;;;;7.70;4.80;;;;;;;20.33;96.08;98620.33;107561;1310;23163;-40
2023/08/27 04:16:06;;;;;;;8.10;4.60;;;;;;;20.32;96.03;98613.72;107544;1310;22288;-41
2023/08/27 04:18:35;;;;;;;11.50;5.10;;;;;;;20.32;96.37;98622.39;107542;1287;23000;-41
2023/08/27 04:21:01;;;;;;;8.40;5.10;;;;;;;20.33;96.31;98624.42;107547;1310;22280;-41
2023/08/27 04:23:27;;;;;;;9.00;4.60;;;;;;;20.35;97.10;98628.77;107564;1288;22273;-41
2023/08/27 04:25:53;;;;;;;6.70;4.70;;;;;;;20.34;97.75;98637.71;107544;1310;22485;-39
2023/08/27 04:28:18;;;;;;;11.20;5.90;;;;;;;20.35;96.61;98638.75;107553;1310;22459;-41
2023/08/27 04:30:47;;;;;;;6.90;4.60;;;;;;;20.36;96.62;98629.67;107531;1310;22356;-41
2023/08/27 04:33:13;;;;;;;7.20;4.90;;;;;;;20.36;96.92;98621.84;107541;1310;22243;-41
2023/08/27 04:35:38;;;;;;;12.10;5.00;;;;;;;20.36;96.59;98625.93;107533;1288;22274;-39
2023/08/27 04:38:05;;;;;;;9.80;5.00;;;;;;;20.36;95.76;98632.23;107514;1310;22336;-41
2023/08/27 04:40:30;;;;;;;10.60;5.40;;;;;;;20.36;96.37;98633.99;107562;1310;22315;-41
2023/08/27 04:42:57;;;;;;;9.70;4.80;;;;;;;20.36;96.81;98634.16;107538;1310;22342;-41
2023/08/27 04:45:23;;;;;;;9.20;5.10;;;;;;;20.39;97.60;98633.98;107537;1310;22437;-41
2023/08/27 04:47:48;;;;;;;8.50;5.30;;;;;;;20.43;97.28;98630.32;107537;1310;22412;-41
2023/08/27 04:50:14;;;;;;;6.50;4.90;;;;;;;20.45;97.45;98627.83;107530;1310;22919;-40
2023/08/27 04:52:39;;;;;;;7.80;5.40;;;;;;;20.46;97.05;98626.27;107533;1292;22251;-41
2023/08/27 04:55:07;;;;;;;7.00;4.80;;;;;;;20.46;97.62;98618.85;107400;1310;22501;-42
2023/08/27 04:57:36;;;;;;;8.00;5.50;;;;;;;20.48;96.94;98615.44;107547;1310;22579;-41
2023/08/27 05:00:07;;;;;;;12.20;6.20;;;;;;;20.45;97.41;98609.53;107525;1310;22267;-41
2023/08/27 05:02:36;;;;;;;9.90;5.80;;;;;;;20.45;97.53;98604.16;107554;1304;22973;-39
2023/08/27 05:05:02;;;;;;;7.90;5.10;;;;;;;20.48;98.24;98598.11;107544;1310;22446;-41
2023/08/27 05:07:28;;;;;;;9.70;5.90;;;;;;;20.50;98.16;98591.45;107556;1310;22449;-40
2023/08/27 05:09:53;;;;;;;10.50;5.40;;;;;;;20.52;97.85;98590.41;107520;1310;22271;-41
2023/08/27 05:12:18;;;;;;;6.30;5.20;;;;;;;20.57;97.51;98590.02;107540;1310;22497;-41
2023/08/27 05:14:44;;;;;;;8.10;5.30;;;;;;;20.63;97.34;98587.25;107521;1310;22269;-41
2023/08/27 05:17:10;;;;;;;7.10;5.70;;;;;;;20.62;97.48;98586.85;107523;1310;22451;-41
2023/08/27 05:19:35;;;;;;;12.90;5.70;;;;;;;20.61;97.57;98586.80;107561;1288;22406;-40
2023/08/27 05:22:01;;;;;;;7.30;5.80;;;;;;;20.62;98.41;98584.60;107527;1310;22265;-38
2023/08/27 05:24:27;;;;;;;9.20;5.50;;;;;;;20.63;97.74;98585.70;107525;1310;22990;-40
2023/08/27 05:26:52;;;;;;;9.10;6.30;;;;;;;20.65;97.26;98578.50;107526;1310;22292;-41
2023/08/27 05:29:17;;;;;;;8.60;6.30;;;;;;;20.67;97.65;98562.47;107532;1310;22152;-39
2023/08/27 05:31:43;;;;;;;8.20;6.20;;;;;;;20.67;97.85;98555.19;107523;1310;22248;-39
2023/08/27 05:34:08;;;;;;;9.80;6.10;;;;;;;20.68;97.97;98552.58;107527;1310;22299;-38
2023/08/27 05:36:33;;;;;;;8.30;6.70;;;;;;;20.67;98.61;98551.21;107527;1310;22171;-40
2023/08/27 05:38:59;;;;;;;10.10;6.10;;;;;;;20.67;98.21;98560.66;107540;1310;22434;-40
2023/08/27 05:41:24;;;;;;;8.50;5.70;;;;;;;20.70;97.86;98567.61;107525;1310;22507;-39
2023/08/27 05:43:49;;;;;;;7.20;5.50;;;;;;;20.73;97.75;98571.21;107535;1310;22253;-42
2023/08/27 05:46:15;;;;;;;10.30;5.20;;;;;;;20.71;97.46;98579.07;107526;1310;23031;-42
2023/08/27 05:48:40;;;;;;;7.10;5.30;;;;;;;20.73;97.60;98581.44;107563;1310;22252;-39
2023/08/27 05:51:05;;;;;;;6.50;5.30;;;;;;;20.74;97.53;98572.45;107533;1310;22495;-43
2023/08/27 05:53:31;;;;;;;6.70;4.50;;;;;;;20.75;97.11;98572.24;107551;1310;22243;-39
2023/08/27 05:55:56;;;;;;;8.00;4.90;;;;;;;20.75;96.85;98576.23;107546;1310;22456;-43
2023/08/27 05:58:21;;;;;;;6.80;4.60;;;;;;;20.77;97.13;98576.23;107535;1310;22589;-42
2023/08/27 06:00:51;;;;;;;6.90;5.10;;;;;;;20.82;96.62;98581.66;107561;1310;23303;-39
2023/08/27 06:03:16;;;;;;;9.10;5.30;;;;;;;20.84;96.27;98583.02;107542;1310;22424;-38
2023/08/27 06:05:42;;;;;;;8.30;5.20;;;;;;;20.87;96.17;98578.79;107556;1310;23282;-42
2023/08/27 06:08:07;;;;;;;9.00;4.80;;;;;;;20.91;95.88;98581.92;107524;1310;22639;-40
2023/08/27 06:10:34;;;;;;;7.30;5.20;;;;;;;20.96;95.53;98584.46;107542;1310;22446;-43
2023/08/27 06:12:59;;;;;;;8.30;5.20;;;;;;;20.99;95.92;98583.13;107556;1310;22976;-41
2023/08/27 06:15:27;;;;;;;6.70;5.70;;;;;;;21.06;95.52;98578.14;107547;1310;22443;-42
2023/08/27 06:17:53;;;;;;;7.60;5.10;;;;;;;21.12;95.68;98575.84;107567;1310;23004;-39
2023/08/27 06:20:18;;;;;;;7.60;5.10;;;;;;;21.17;95.02;98575.34;107557;1310;22250;-39
2023/08/27 06:22:44;;;;;;;8.50;5.40;;;;;;;21.21;94.71;98570.92;107554;1310;22987;-42
2023/08/27 06:25:09;;;;;;;10.40;5.60;;;;;;;21.24;94.42;98566.38;107645;1309;22250;-43
2023/08/27 06:27:34;;;;;;;8.60;4.80;;;;;;;21.26;94.37;98561.02;107683;1309;23261;-41
2023/08/27 06:30:00;;;;;;;7.30;4.70;;;;;;;21.26;94.08;98560.75;107682;1288;22256;-40
2023/08/27 06:32:27;;;;;;;16.30;4.60;;;;;;;21.29;94.01;98558.96;107677;1309;22367;-39
2023/08/27 06:34:52;;;;;;;5.50;4.80;;;;;;;21.32;94.32;98554.98;107683;1309;22991;-37
2023/08/27 06:37:17;;;;;;;9.70;4.80;;;;;;;21.36;94.27;98554.80;107697;1309;22527;-42
2023/08/27 06:39:43;;;;;;;13.40;4.60;;;;;;;21.40;94.39;98551.59;107643;1309;22581;-39
2023/08/27 06:42:08;;;;;;;9.80;4.80;;;;;;;21.45;94.00;98554.05;107640;1309;22352;-42
2023/08/27 06:44:33;;;;;;;10.30;5.20;;;;;;;21.51;93.70;98556.06;107659;1309;22283;-39
2023/08/27 06:46:59;;;;;;;6.80;4.70;;;;;;;21.55;93.23;98562.77;107655;1309;22460;-40
2023/08/27 06:49:24;;;;;;;10.50;5.40;;;;;;;21.60;93.33;98564.30;107656;1309;23334;-38
2023/08/27 06:51:50;;;;;;;7.20;4.70;;;;;;;21.66;93.22;98561.88;107643;1309;22255;-40
2023/08/27 06:54:15;;;;;;;6.50;4.20;;;;;;;21.71;92.83;98563.26;107648;1309;23146;-42
2023/08/27 06:56:40;;;;;;;11.90;4.90;;;;;;;21.75;93.04;98554.64;107692;1309;22254;-39
2023/08/27 06:59:06;;;;;;;9.50;4.50;;;;;;;21.77;92.81;98547.64;107682;1309;22324;-40
2023/08/27 07:01:31;;;;;;;6.10;4.80;;;;;;;21.82;92.66;98550.02;107678;1309;22462;-46
2023/08/27 07:03:58;;;;;;;7.50;4.60;;;;;;;21.89;92.48;98551.06;107645;1309;22232;-41
2023/08/27 07:06:23;;;;;;;7.60;4.20;;;;;;;21.92;92.35;98550.21;107674;1304;22850;-40
2023/08/27 07:08:49;;;;;;;7.70;4.70;;;;;;;21.95;92.12;98553.05;107662;1309;23208;-42
2023/08/27 07:11:16;;;;;;;11.60;4.50;;;;;;;22.01;91.99;98552.58;107667;1309;23538;-41
2023/08/27 07:13:41;;;;;;;10.30;4.80;;;;;;;22.04;91.89;98556.67;107681;1309;22697;-40
2023/08/27 07:16:07;;;;;;;6.40;4.40;;;;;;;22.08;91.48;98554.65;107665;1294;22173;-41
2023/08/27 07:18:32;;;;;;;6.10;4.10;;;;;;;22.12;91.54;98555.73;107666;1309;23204;-42
2023/08/27 07:20:57;;;;;;;12.60;4.40;;;;;;;22.18;91.37;98554.17;107656;1309;22270;-43
2023/08/27 07:23:23;;;;;;;7.80;4.00;;;;;;;22.25;91.25;98549.83;107661;1301;22558;-39
2023/08/27 07:25:49;;;;;;;7.60;4.00;;;;;;;22.33;91.24;98540.55;107665;1309;22578;-42
2023/08/27 07:28:14;;;;;;;10.10;4.20;;;;;;;22.42;90.91;98541.02;107499;1295;22556;-43
2023/08/27 07:30:39;;;;;;;8.70;4.20;;;;;;;22.48;90.72;98540.02;107644;1309;22342;-41
2023/08/27 07:33:06;;;;;;;6.00;4.10;;;;;;;22.56;90.62;98543.52;107655;1309;22223;-39
2023/08/27 07:35:32;;;;;;;5.10;3.90;;;;;;;22.64;90.43;98535.48;107647;1309;23412;-39
2023/08/27 07:37:58;;;;;;;6.60;3.90;;;;;;;22.68;90.31;98536.95;107638;1309;22449;-39
2023/08/27 07:40:23;;;;;;;6.20;4.10;;;;;;;22.73;90.09;98544.00;107676;1309;22250;-41
2023/08/27 07:42:49;;;;;;;7.90;3.40;;;;;;;22.76;89.61;98550.48;107668;1300;22129;-40
2023/08/27 07:45:14;;;;;;;9.50;4.10;;;;;;;22.83;88.56;98558.44;107652;1309;23153;-39
2023/08/27 07:47:40;;;;;;;4.60;3.50;;;;;;;22.91;88.15;98559.29;107674;1309;22475;-41
2023/08/27 07:50:06;;;;;;;5.70;3.70;;;;;;;23.02;87.95;98564.39;107648;1309;22975;-39
2023/08/27 07:52:31;;;;;;;5.00;3.20;;;;;;;23.10;87.06;98572.59;107678;1309;22425;-42
2023/08/27 07:54:57;;;;;;;4.50;3.70;;;;;;;23.17;86.27;98571.58;107654;1309;22434;-40
2023/08/27 07:57:22;;;;;;;8.90;4.40;;;;;;;23.20;85.27;98566.38;107681;1309;22497;-41
2023/08/27 07:59:49;;;;;;;6.50;3.70;;;;;;;23.26;84.72;98566.68;107643;1309;22251;-40
2023/08/27 08:02:14;;;;;;;8.90;4.00;;;;;;;23.37;84.20;98562.88;107658;1309;22234;-39
2023/08/27 08:04:39;;;;;;;6.10;3.90;;;;;;;23.50;84.37;98562.73;107654;1309;22241;-40
2023/08/27 08:07:05;;;;;;;7.40;3.50;;;;;;;23.54;81.95;98558.76;107646;1309;23226;-40
2023/08/27 08:09:30;;;;;;;5.50;3.60;;;;;;;23.57;82.40;98555.88;107637;1309;22417;-42
2023/08/27 08:11:56;;;;;;;10.10;4.20;;;;;;;23.60;82.84;98555.83;107672;1309;22462;-41
2023/08/27 08:14:21;;;;;;;7.30;3.90;;;;;;;23.59;82.33;98546.85;107667;1309;22278;-41
2023/08/27 08:16:49;;;;;;;4.50;3.40;;;;;;;23.56;81.09;98537.77;107672;1309;23275;-40
2023/08/27 08:19:14;;;;;;;7.90;4.40;;;;;;;23.59;81.00;98538.27;107653;1308;22274;-42
2023/08/27 08:21:39;;;;;;;4.70;3.60;;;;;;;23.69;81.20;98546.03;107661;1309;22488;-40
2023/08/27 08:24:05;;;;;;;5.60;3.90;;;;;;;23.85;81.66;98557.90;107642;1309;22286;-39
2023/08/27 08:26:30;;;;;;;5.80;3.90;;;;;;;24.01;80.81;98561.81;107649;1309;22235;-42
2023/08/27 08:28:56;;;;;;;4.80;3.40;;;;;;;24.15;80.69;98568.83;107322;1309;23096;-41
2023/08/27 08:31:21;;;;;;;5.60;3.50;;;;;;;24.28;80.44;98571.06;107668;1309;22408;-41
2023/08/27 08:33:46;;;;;;;6.00;3.40;;;;;;;24.42;80.05;98566.66;107648;1291;22432;-41
2023/08/27 08:36:12;;;;;;;11.10;3.90;;;;;;;24.55;79.83;98556.77;107656;1309;23153;-42
2023/08/27 08:38:37;;;;;;;4.30;3.40;;;;;;;24.62;78.71;98549.94;107671;1309;23028;-42
2023/08/27 08:41:04;;;;;;;5.80;3.10;;;;;;;24.64;77.08;98540.64;107663;1309;22261;-42
2023/08/27 08:43:43;;;;;;;4.20;3.00;;;;;;;24.71;77.72;98527.54;107663;1309;23029;-39
2023/08/27 08:46:10;;;;;;;5.50;3.00;;;;;;;24.80;76.97;98509.88;107672;1309;22425;-43
2023/08/27 08:48:41;;;;;;;7.00;3.50;;;;;;;24.87;76.98;98499.79;107664;1309;22428;-41
2023/08/27 08:51:12;;;;;;;4.30;3.50;;;;;;;24.95;77.14;98497.45;107651;1309;22446;-41
2023/08/27 08:53:51;;;;;;;4.10;3.20;;;;;;;24.98;76.19;98491.00;107651;1309;22294;-43
2023/08/27 08:56:41;;;;;;;8.70;3.60;;;;;;;25.05;76.30;98494.15;107641;1309;23190;-40
2023/08/27 08:59:07;;;;;;;6.20;3.10;;;;;;;25.19;76.07;98504.17;107653;1309;22252;-43
2023/08/27 09:01:32;;;;;;;4.40;2.90;;;;;;;25.28;74.96;98508.77;107665;1309;22483;-40
2023/08/27 09:03:59;;;;;;;3.20;2.90;;;;;;;25.36;74.83;98511.20;107633;1309;22967;-40
2023/08/27 09:06:26;;;;;;;4.00;3.40;;;;;;;25.46;73.85;98520.65;107630;1309;22626;-40
2023/08/27 09:08:52;;;;;;;9.30;2.90;;;;;;;25.59;73.28;98524.69;107653;1309;22293;-42
2023/08/27 09:11:19;;;;;;;4.70;3.30;;;;;;;25.68;72.99;98522.83;107664;1309;22262;-43
2023/08/27 09:13:45;;;;;;;4.30;3.40;;;;;;;25.76;73.02;98514.45;107675;1309;23120;-43
2023/08/27 09:16:10;;;;;;;4.70;3.10;;;;;;;25.86;71.96;98512.41;107655;1309;22438;-43
2023/08/27 09:18:36;;;;;;;7.40;3.30;;;;;;;25.96;71.49;98510.89;107657;1309;22426;-42
2023/08/27 09:21:02;;;;;;;4.20;3.30;;;;;;;26.20;70.73;98510.94;107666;1289;22238;-40
2023/08/27 09:23:32;;;;;;;3.60;2.90;;;;;;;26.63;68.04;98503.36;107656;1309;23146;-41
2023/08/27 09:26:02;;;;;;;6.90;2.80;;;;;;;27.10;68.15;98499.16;107662;1309;22261;-40
2023/08/27 09:28:27;;;;;;;2.90;2.70;;;;;;;27.62;65.90;98487.43;107659;1309;22499;-42
2023/08/27 09:30:52;;;;;;;3.30;2.50;;;;;;;28.07;64.35;98482.56;107649;1309;22256;-47
2023/08/27 09:33:18;;;;;;;3.50;2.80;;;;;;;28.51;63.12;98487.25;107646;1309;22467;-43
2023/08/27 09:35:44;;;;;;;3.50;2.70;;;;;;;29.14;60.87;98493.23;107644;1309;22273;-43
2023/08/27 09:38:15;;;;;;;4.80;2.30;;;;;;;29.82;60.06;98498.37;107661;1309;23298;-42
2023/08/27 09:40:40;;;;;;;3.80;2.30;;;;;;;30.40;56.65;98498.01;107667;1301;22268;-42
2023/08/27 09:43:08;;;;;;;2.60;2.40;;;;;;;31.07;54.68;98492.92;107666;1309;22343;-41
2023/08/27 09:45:34;;;;;;;7.80;2.50;;;;;;;31.62;52.87;98482.59;107639;1309;22406;-43
2023/08/27 09:48:00;;;;;;;4.00;2.10;;;;;;;31.95;49.11;98472.31;107441;1309;22239;-46
2023/08/27 09:50:28;;;;;;;3.90;2.70;;;;;;;32.15;47.30;98471.77;107633;1309;22246;-42
2023/08/27 09:53:04;;;;;;;3.40;2.20;;;;;;;32.31;47.76;98481.95;107626;1309;23001;-41
2023/08/27 09:55:31;;;;;;;2.30;2.10;;;;;;;32.43;47.61;98485.52;107656;1309;22251;-42
2023/08/27 09:57:57;;;;;;;3.70;2.50;;;;;;;32.56;46.78;98492.38;107663;1309;22384;-42
2023/08/27 10:00:26;;;;;;;3.60;2.30;;;;;;;32.81;46.02;98502.10;107641;1309;22258;-42
2023/08/27 10:02:53;;;;;;;4.60;2.50;;;;;;;32.93;43.36;98500.96;107650;1309;22964;-40
2023/08/27 10:05:27;;;;;;;5.10;2.70;;;;;;;33.12;44.67;98495.42;107651;1309;22255;-41
2023/08/27 10:07:57;;;;;;;2.90;2.50;;;;;;;33.37;43.01;98491.25;107653;1298;22357;-48
2023/08/27 10:10:22;;;;;;;2.30;2.10;;;;;;;33.68;44.05;98489.83;107666;1292;22410;-44
2023/08/27 10:12:48;;;;;;;3.00;2.30;;;;;;;33.84;41.06;98489.54;107667;1309;22473;-46
2023/08/27 10:15:16;;;;;;;4.00;2.10;;;;;;;34.17;40.17;98495.56;107633;1309;22286;-39
2023/08/27 10:17:42;;;;;;;2.80;2.30;;;;;;;34.50;39.84;98502.20;107637;1309;22252;-42
2023/08/27 10:20:08;;;;;;;4.40;2.30;;;;;;;34.85;39.28;98492.75;107639;1309;22251;-43
2023/08/27 10:22:35;;;;;;;2.30;2.10;;;;;;;35.02;38.18;98493.91;107635;1309;23193;-41
2023/08/27 10:25:04;;;;;;;4.40;2.40;;;;;;;35.16;38.06;98488.30;107652;1309;22231;-43
2023/08/27 10:27:29;;;;;;;2.00;1.80;;;;;;;35.02;38.79;98486.02;107627;1292;22463;-45
2023/08/27 10:29:56;;;;;;;3.80;2.30;;;;;;;35.10;38.97;98476.14;107641;1309;22300;-42
2023/08/27 10:32:21;;;;;;;5.30;2.20;;;;;;;35.32;37.19;98470.48;107629;1309;22255;-47
2023/08/27 10:34:46;;;;;;;4.50;2.10;;;;;;;35.31;37.05;98468.30;107646;1309;22432;-45
2023/08/27 10:37:13;;;;;;;2.90;2.00;;;;;;;35.16;37.12;98467.16;107746;1308;23024;-43
2023/08/27 10:39:39;;;;;;;2.80;2.20;;;;;;;35.23;37.29;98465.17;107715;1308;23296;-40
2023/08/27 10:42:05;;;;;;;4.60;2.80;;;;;;;35.18;37.07;98459.52;107725;1308;22292;-42
2023/08/27 10:44:30;;;;;;;5.60;2.40;;;;;;;35.23;36.88;98450.86;107725;1308;22671;-43
2023/08/27 10:47:14;;;;;;;7.00;2.30;;;;;;;34.91;36.78;98446.90;107727;1308;22250;-42
2023/08/27 10:49:41;;;;;;;4.70;2.20;;;;;;;34.63;36.87;98452.05;107752;1308;22481;-44
2023/08/27 10:52:20;;;;;;;2.10;1.90;;;;;;;34.85;38.06;98446.48;107752;1308;22241;-42
2023/08/27 10:54:47;;;;;;;6.10;2.20;;;;;;;35.06;36.40;98435.63;107756;1308;22304;-42
2023/08/27 10:57:21;;;;;;;;;;;;;;;35.11;37.02;98438.70;107772;1308;22466;-46
2023/08/27 10:59:46;;;;;;;2.60;2.30;;;;;;;35.21;36.12;98445.48;107743;1308;22290;-41
2023/08/27 11:02:12;;;;;;;4.40;2.20;;;;;;;35.62;36.34;98447.95;107734;1308;22238;-47
2023/08/27 11:04:40;;;;;;;3.60;2.20;;;;;;;35.62;35.35;98452.28;107756;1308;22560;-44
2023/08/27 11:07:19;;;;;;;4.70;2.00;;;;;;;35.18;35.33;98445.98;107737;1308;23301;-43
2023/08/27 11:09:49;;;;;;;2.70;2.20;;;;;;;34.51;36.38;98450.98;107746;1308;22271;-40
2023/08/27 11:12:25;;;;;;;3.70;2.30;;;;;;;33.95;37.21;98457.13;107725;1308;22568;-42
2023/08/27 11:14:53;;;;;;;5.90;2.10;;;;;;;33.83;38.06;98452.82;107753;1308;23002;-39
2023/08/27 11:17:25;;;;;;;3.70;2.10;;;;;;;34.26;38.21;98446.52;107763;1308;23210;-40
2023/08/27 11:19:51;;;;;;;2.40;2.10;;;;;;;34.57;37.24;98444.16;107752;1308;22795;-39
2023/08/27 11:22:21;;;;;;;5.90;2.40;;;;;;;34.27;38.16;98446.75;107716;1308;22177;-42
2023/08/27 11:24:52;;;;;;;7.10;2.60;;;;;;;33.82;38.23;98444.13;107568;1308;22984;-41
2023/08/27 11:27:19;;;;;;;5.50;2.80;;;;;;;33.99;40.13;98446.48;107734;1308;22547;-42
2023/08/27 11:29:51;;;;;;;3.90;2.70;;;;;;;34.47;38.85;98440.24;107720;1308;23025;-43
2023/08/27 11:32:19;;;;;;;3.30;2.40;;;;;;;35.15;37.12;98437.09;107755;1308;23053;-43
2023/08/27 11:34:45;;;;;;;4.50;2.30;;;;;;;35.67;36.36;98433.65;107707;1308;23557;-43
2023/08/27 11:37:12;;;;;;;5.80;2.50;;;;;;;35.64;35.42;98432.85;107729;1308;22309;-42
2023/08/27 11:39:37;;;;;;;;;;;;;;;35.89;34.77;98433.19;107751;1308;23321;-38
2023/08/27 11:42:12;;;;;;;;;;;;;;;36.71;35.15;98434.31;107785;1308;22570;-42
2023/08/27 11:44:51;;;;;;;2.70;2.00;;;;;;;37.62;33.73;98431.86;107743;1308;22289;-45
2023/08/27 11:47:17;;;;;;;3.90;2.10;;;;;;;37.81;31.89;98440.55;107719;1308;22247;-39
2023/08/27 11:49:43;;;;;;;3.10;2.20;;;;;;;36.77;31.74;98447.16;107756;1308;22349;-44
2023/08/27 11:52:08;;;;;;;3.90;2.50;;;;;;;35.77;33.17;98445.54;107736;1308;22418;-43
2023/08/27 11:54:34;;;;;;;2.40;2.20;;;;;;;34.97;34.81;98433.38;107739;1308;22963;-41
2023/08/27 11:57:02;;;;;;;2.60;2.40;;;;;;;34.09;35.79;98427.64;107744;1308;22396;-43
2023/08/27 11:59:28;;;;;;;6.60;3.00;;;;;;;33.40;37.25;98418.74;107569;1308;22424;-42
2023/08/27 12:01:55;;;;;;;6.20;2.30;;;;;;;32.85;38.27;98406.27;107735;1308;22247;-42
2023/08/27 12:04:21;;;;;;;;;;;;;;;32.34;39.86;98401.69;107745;1308;22579;-44
2023/08/27 12:06:59;;;;;;;3.90;1.90;;;;;;;31.94;40.28;98401.27;107769;1308;22512;-43
2023/08/27 12:09:27;;;;;;;5.30;2.20;;;;;;;31.60;40.78;98404.24;107734;1289;22639;-41
2023/08/27 12:11:53;;;;;;;3.30;2.30;;;;;;;31.96;41.64;98399.27;107729;1308;22475;-44
2023/08/27 12:14:25;;;;;;;4.10;2.50;;;;;;;32.93;40.12;98393.61;107750;1308;22468;-39
2023/08/27 12:16:52;;;;;;;7.90;2.90;;;;;;;32.71;39.88;98390.81;107746;1308;22446;-39
2023/08/27 12:19:22;;;;;;;3.10;2.50;;;;;;;32.35;40.67;98392.00;107739;1308;22569;-40
2023/08/27 12:21:52;;;;;;;3.40;2.50;;;;;;;32.00;41.83;98390.55;107767;1308;22572;-43
2023/08/27 12:24:31;;;;;;;3.60;2.50;;;;;;;31.82;42.81;98387.52;107752;1308;22855;-45
2023/08/27 12:27:06;;;;;;;3.10;2.10;;;;;;;32.17;43.41;98387.69;107724;1308;23024;-45
2023/08/27 12:29:33;;;;;;;8.20;2.20;;;;;;;33.58;41.55;98395.08;107737;1308;22474;-42
2023/08/27 12:32:09;;;;;;;3.20;2.20;;;;;;;33.97;39.99;98407.89;107729;1308;22251;-39
2023/08/27 12:34:36;;;;;;;3.60;2.50;;;;;;;33.39;39.64;98415.61;107723;1308;23122;-42
2023/08/27 12:37:03;;;;;;;5.30;2.60;;;;;;;32.65;40.22;98412.87;107742;1308;22223;-43
2023/08/27 12:39:28;;;;;;;;;;;;;;;32.06;41.09;98413.16;107759;1308;22468;-45
2023/08/27 12:41:53;;;;;;;4.10;2.30;;;;;;;31.47;42.22;98404.59;107739;1308;22485;-41
2023/08/27 12:44:21;;;;;;;5.00;2.40;;;;;;;31.07;43.14;98394.26;107751;1308;22459;-42
2023/08/27 12:46:47;;;;;;;5.20;2.80;;;;;;;30.67;44.11;98392.67;107730;1308;23036;-42
2023/08/27 12:49:12;;;;;;;6.60;3.40;;;;;;;30.29;44.65;98385.40;107745;1308;22257;-43
2023/08/27 12:51:40;;;;;;;4.60;3.00;;;;;;;29.93;45.65;98376.80;107735;1308;22215;-41
2023/08/27 12:54:06;;;;;;;4.60;2.70;;;;;;;29.56;46.71;98375.35;107720;1308;22224;-43
2023/08/27 12:56:33;;;;;;;4.00;2.90;;;;;;;29.25;47.57;98377.56;107744;1308;22272;-42
2023/08/27 12:58:59;;;;;;;4.30;2.90;;;;;;;28.91;48.41;98378.54;107579;1308;22427;-39
2023/08/27 13:01:24;;;;;;;5.00;3.40;;;;;;;28.72;48.40;98374.63;107735;1308;23180;-41
2023/08/27 13:03:49;;;;;;;5.90;3.10;;;;;;;28.50;50.11;98374.60;107722;1308;22244;-40
2023/08/27 13:06:14;;;;;;;4.40;3.10;;;;;;;28.41;50.15;98369.19;107747;1308;22262;-39
2023/08/27 13:08:40;;;;;;;5.70;2.70;;;;;;;28.34;50.12;98359.67;107739;1308;22268;-40
2023/08/27 13:11:05;;;;;;;3.10;2.80;;;;;;;28.28;50.87;98350.92;107767;1308;22428;-40
2023/08/27 13:13:30;;;;;;;3.20;3.00;;;;;;;28.25;50.98;98342.49;107755;1308;23169;-43
2023/08/27 13:15:58;;;;;;;3.20;2.90;;;;;;;28.23;52.16;98339.10;107736;1308;22246;-42
2023/08/27 13:18:23;;;;;;;4.40;3.00;;;;;;;28.23;52.90;98340.35;107737;1308;23161;-42
2023/08/27 13:20:48;;;;;;;9.20;3.20;;;;;;;28.25;52.32;98339.96;107754;1308;22235;-41
2023/08/27 13:23:14;;;;;;;3.20;2.90;;;;;;;28.29;53.30;98335.60;107715;1308;22220;-42
2023/08/27 13:25:39;;;;;;;6.00;3.20;;;;;;;28.35;53.19;98344.48;107740;1308;22270;-40
2023/08/27 13:28:05;;;;;;;4.40;2.90;;;;;;;28.39;53.03;98349.15;107742;1308;22799;-38
2023/08/27 13:30:31;;;;;;;2.90;2.60;;;;;;;28.39;53.13;98350.35;107743;1308;22257;-40
2023/08/27 13:32:56;;;;;;;4.90;2.50;;;;;;;28.39;53.43;98348.80;107721;1308;22243;-41
2023/08/27 13:35:22;;;;;;;5.90;3.00;;;;;;;28.33;53.13;98342.22;107723;1308;22425;-46
2023/08/27 13:37:48;;;;;;;4.70;3.10;;;;;;;28.39;52.82;98335.00;107757;1308;22311;-43
2023/08/27 13:40:13;;;;;;;7.10;3.40;;;;;;;28.47;53.74;98330.15;107728;1308;22249;-42
2023/08/27 13:42:38;;;;;;;7.00;2.90;;;;;;;28.67;52.93;98331.64;107759;1308;22904;-42
2023/08/27 13:45:04;;;;;;;3.90;2.80;;;;;;;28.70;52.00;98330.50;107760;1308;22901;-39
2023/08/27 13:47:30;;;;;;;3.20;2.60;;;;;;;28.69;52.16;98322.40;107754;1308;22423;-43
2023/08/27 13:49:55;;;;;;;5.00;2.80;;;;;;;28.86;52.92;98328.60;107741;1308;22251;-41
2023/08/27 13:52:20;;;;;;;3.40;2.80;;;;;;;29.04;52.42;98336.27;107713;1308;22303;-41
2023/08/27 13:54:46;;;;;;;4.40;2.90;;;;;;;29.05;52.32;98341.98;107737;1308;22238;-42
2023/08/27 13:57:13;;;;;;;5.20;3.00;;;;;;;28.98;52.16;98348.93;107738;1308;22237;-38
2023/08/27 13:59:39;;;;;;;3.70;3.00;;;;;;;28.99;52.22;98350.42;107723;1308;22452;-43
2023/08/27 14:02:04;;;;;;;5.10;3.20;;;;;;;29.07;51.86;98351.45;107736;1286;22236;-38
2023/08/27 14:04:29;;;;;;;11.00;3.00;;;;;;;29.19;51.57;98356.27;107716;1308;22292;-44
2023/08/27 14:06:55;;;;;;;4.50;2.90;;;;;;;29.20;51.23;98353.57;107772;1308;22252;-39